Time;durP1;ratioP1;P1;durP2;ratioP2;P2;SDS_P1;SDS_P2;PMS_P1;PMS_P2;Temp;Humidity;BMP_temperature;BMP_pressure;BME280_temperature;BME280_humidity;BME280_pressure;Samples;Min_cycle;Max_cycle;Signal;HPM_P1;HPM_P2
2023/04/21 00:01:49;;;;;;;16.20;11.88;;;;;;;8.57;100.00;101424.72;5035340;28;20124;-62
2023/04/21 00:04:18;;;;;;;12.45;8.85;;;;;;;8.48;100.00;101421.53;5033534;28;20133;-64
2023/04/21 00:06:46;;;;;;;20.08;12.68;;;;;;;8.41;100.00;101418.94;5030032;28;20065;-62
2023/04/21 00:09:14;;;;;;;16.23;11.80;;;;;;;8.34;100.00;101418.22;5038547;28;20088;-63
2023/04/21 00:11:41;;;;;;;15.23;10.82;;;;;;;8.31;100.00;101397.81;5034378;28;20073;-63
2023/04/21 00:14:09;;;;;;;14.45;10.93;;;;;;;8.33;100.00;101394.88;5034948;28;20061;-62
2023/04/21 00:16:37;;;;;;;14.85;11.13;;;;;;;8.31;100.00;101388.84;5033995;28;20156;-63
2023/04/21 00:19:05;;;;;;;15.63;10.88;;;;;;;8.39;100.00;101398.50;5046740;28;20076;-62
2023/04/21 00:21:34;;;;;;;14.35;11.35;;;;;;;8.39;100.00;101388.47;5040845;28;20049;-63
2023/04/21 00:24:02;;;;;;;16.27;11.40;;;;;;;8.42;100.00;101381.75;5033335;28;20053;-63
2023/04/21 00:26:30;;;;;;;16.92;11.77;;;;;;;8.39;100.00;101371.34;5035107;28;20044;-67
2023/04/21 00:28:57;;;;;;;15.60;10.93;;;;;;;8.39;100.00;101372.16;5034319;28;20050;-63
2023/04/21 00:31:25;;;;;;;14.32;10.90;;;;;;;8.41;100.00;101370.06;5045596;28;20132;-64
2023/04/21 00:33:54;;;;;;;13.90;10.02;;;;;;;8.43;100.00;101365.22;5040611;28;20095;-62
2023/04/21 00:36:23;;;;;;;17.13;11.60;;;;;;;8.44;100.00;101374.19;5001143;28;20053;-62
2023/04/21 00:38:53;;;;;;;17.20;11.65;;;;;;;8.43;100.00;101378.81;5033378;28;20069;-62
2023/04/21 00:41:22;;;;;;;14.90;10.65;;;;;;;8.43;100.00;101367.94;5037480;28;20050;-62
2023/04/21 00:44:17;;;;;;;14.35;10.85;;;;;;;8.45;100.00;101373.97;5036192;28;20431;-64
2023/04/21 00:46:45;;;;;;;15.43;12.05;;;;;;;8.47;100.00;101369.13;5018190;28;20163;-62
2023/04/21 00:49:14;;;;;;;15.10;11.68;;;;;;;8.46;100.00;101370.19;5018491;28;20137;-62
2023/04/21 00:51:42;;;;;;;15.77;11.40;;;;;;;8.43;100.00;101373.38;5037731;28;20053;-62
2023/04/21 00:54:11;;;;;;;14.32;11.10;;;;;;;8.47;100.00;101373.75;5033781;28;20059;-64
2023/04/21 00:56:39;;;;;;;17.80;11.10;;;;;;;8.46;100.00;101370.19;5032119;28;20053;-63
2023/04/21 00:59:07;;;;;;;17.70;11.50;;;;;;;8.40;100.00;101365.72;5032341;28;20243;-64
2023/04/21 01:01:35;;;;;;;16.67;11.23;;;;;;;8.39;100.00;101361.31;5033707;28;20084;-60
2023/04/21 01:04:09;;;;;;;17.98;12.77;;;;;;;8.41;100.00;101367.38;5033714;28;20099;-62
2023/04/21 01:06:37;;;;;;;16.38;12.13;;;;;;;8.39;100.00;101361.31;5049366;28;20251;-62
2023/04/21 01:09:05;;;;;;;19.35;10.38;;;;;;;8.40;100.00;101354.88;5046232;28;20044;-63
2023/04/21 01:11:33;;;;;;;16.10;12.32;;;;;;;8.45;100.00;101352.25;5035004;28;20107;-63
2023/04/21 01:14:00;;;;;;;16.65;11.57;;;;;;;8.49;100.00;101358.84;5032509;28;20049;-61
2023/04/21 01:16:28;;;;;;;17.67;10.63;;;;;;;8.43;100.00;101350.84;5015950;28;20041;-62
2023/04/21 01:18:56;;;;;;;15.38;11.23;;;;;;;8.39;100.00;101350.44;5032349;28;20080;-64
2023/04/21 01:21:24;;;;;;;15.55;11.45;;;;;;;8.27;100.00;101352.38;5032192;28;20045;-64
2023/04/21 01:23:53;;;;;;;16.42;12.25;;;;;;;8.26;100.00;101348.03;5032080;28;20052;-63
2023/04/21 01:26:21;;;;;;;17.05;12.95;;;;;;;8.19;100.00;101342.72;5034111;28;20049;-63
2023/04/21 01:28:50;;;;;;;17.60;13.32;;;;;;;8.11;100.00;101341.19;5033255;28;20046;-62
2023/04/21 01:31:23;;;;;;;17.30;12.32;;;;;;;8.07;100.00;101340.03;5032395;28;20095;-65
2023/04/21 01:33:51;;;;;;;15.77;12.18;;;;;;;8.13;100.00;101351.84;5038727;28;20037;-63
2023/04/21 01:36:18;;;;;;;19.60;13.27;;;;;;;8.19;100.00;101339.19;5031953;28;20115;-64
2023/04/21 01:38:46;;;;;;;18.95;12.75;;;;;;;8.24;100.00;101352.84;5032181;28;20042;-64
2023/04/21 01:41:14;;;;;;;16.60;12.80;;;;;;;8.30;100.00;101347.31;5031676;28;20041;-62
2023/04/21 01:43:42;;;;;;;17.90;13.60;;;;;;;8.32;100.00;101345.19;5032417;28;20458;-64
2023/04/21 01:46:10;;;;;;;18.33;14.18;;;;;;;8.32;100.00;101338.91;5046648;28;20045;-63
2023/04/21 01:48:37;;;;;;;15.00;11.80;;;;;;;8.30;100.00;101336.44;5015625;28;20060;-62
2023/04/21 01:51:05;;;;;;;20.45;14.70;;;;;;;8.32;100.00;101330.75;5032663;28;20052;-62
2023/04/21 01:53:33;;;;;;;20.63;12.70;;;;;;;8.28;100.00;101330.44;5033585;28;20053;-62
2023/04/21 01:56:01;;;;;;;19.52;13.93;;;;;;;8.25;100.00;101321.91;5032867;28;20105;-62
2023/04/21 01:58:31;;;;;;;20.00;15.25;;;;;;;8.15;100.00;101321.72;5042362;28;20397;-62
2023/04/21 02:00:59;;;;;;;18.50;13.63;;;;;;;8.11;100.00;101311.34;5003313;28;20042;-61
2023/04/21 02:03:27;;;;;;;18.10;13.05;;;;;;;8.04;100.00;101310.66;5034559;28;20064;-63
2023/04/21 02:05:55;;;;;;;20.52;15.00;;;;;;;8.07;100.00;101304.75;5047305;28;20098;-64
2023/04/21 02:08:22;;;;;;;19.13;14.38;;;;;;;8.07;100.00;101307.44;5032392;28;20053;-63
2023/04/21 02:10:50;;;;;;;21.83;16.35;;;;;;;8.14;100.00;101306.50;5039728;28;20120;-62
2023/04/21 02:13:18;;;;;;;19.70;14.43;;;;;;;8.13;100.00;101285.84;5041718;28;20071;-64
2023/04/21 02:15:46;;;;;;;22.38;15.65;;;;;;;8.15;100.00;101289.16;5041055;28;20045;-64
2023/04/21 02:18:15;;;;;;;21.30;15.07;;;;;;;8.17;100.00;101287.84;5035721;28;20042;-62
2023/04/21 02:20:44;;;;;;;21.17;15.43;;;;;;;8.20;100.00;101292.81;5036927;28;20048;-62
2023/04/21 02:23:13;;;;;;;23.08;17.25;;;;;;;8.24;100.00;101287.72;5005871;28;20088;-62
2023/04/21 02:25:41;;;;;;;20.20;15.68;;;;;;;8.23;100.00;101286.88;5015903;28;20069;-62
2023/04/21 02:28:09;;;;;;;18.70;14.27;;;;;;;8.21;100.00;101294.44;5033615;28;20046;-63
2023/04/21 02:30:37;;;;;;;26.65;15.18;;;;;;;8.16;100.00;101285.38;5045727;28;20050;-62
2023/04/21 02:33:06;;;;;;;22.00;16.45;;;;;;;8.14;100.00;101299.19;5031066;28;20061;-64
2023/04/21 02:35:37;;;;;;;21.42;16.17;;;;;;;8.07;100.00;101284.91;5036334;28;20119;-63
2023/04/21 02:38:07;;;;;;;20.95;15.70;;;;;;;8.07;100.00;101288.44;5035547;28;20049;-63
2023/04/21 02:40:35;;;;;;;21.55;16.40;;;;;;;8.03;100.00;101279.16;5046172;28;20053;-63
2023/04/21 02:43:03;;;;;;;27.08;19.40;;;;;;;8.06;100.00;101275.16;5047178;28;20045;-64
2023/04/21 02:45:31;;;;;;;24.35;19.15;;;;;;;8.01;100.00;101277.72;5039651;28;20072;-62
2023/04/21 02:47:58;;;;;;;23.88;17.90;;;;;;;8.02;100.00;101274.78;5031705;28;20041;-62
2023/04/21 02:50:27;;;;;;;24.05;17.98;;;;;;;8.10;100.00;101265.44;5048589;28;20100;-63
2023/04/21 02:52:54;;;;;;;24.67;17.95;;;;;;;8.08;100.00;101262.13;5033699;28;20045;-63
2023/04/21 02:55:22;;;;;;;23.95;18.60;;;;;;;8.09;100.00;101270.03;5036469;28;20045;-62
2023/04/21 02:57:50;;;;;;;23.70;18.23;;;;;;;8.08;100.00;101262.13;5051774;28;20448;-63
2023/04/21 03:00:19;;;;;;;23.02;18.23;;;;;;;8.10;100.00;101260.84;5035405;28;20107;-63
2023/04/21 03:02:47;;;;;;;22.42;17.65;;;;;;;8.08;100.00;101265.69;5036174;28;20083;-64
2023/04/21 03:05:16;;;;;;;24.67;19.73;;;;;;;8.08;100.00;101268.41;5037100;28;20160;-64
2023/04/21 03:07:47;;;;;;;23.17;18.02;;;;;;;8.06;100.00;101264.28;5046241;28;20501;-64
2023/04/21 03:10:14;;;;;;;22.52;16.35;;;;;;;8.07;100.00;101264.03;5056959;28;20049;-63
2023/04/21 03:12:42;;;;;;;29.23;20.17;;;;;;;8.13;100.00;101266.84;5052666;28;20073;-65
2023/04/21 03:15:10;;;;;;;26.15;19.90;;;;;;;8.13;100.00;101266.84;5036309;28;20052;-64
2023/04/21 03:17:38;;;;;;;27.65;20.33;;;;;;;8.11;100.00;101262.50;5035177;28;20076;-65
2023/04/21 03:20:07;;;;;;;24.95;19.55;;;;;;;8.10;100.00;101263.56;5018631;28;20379;-62
2023/04/21 03:22:35;;;;;;;25.90;20.08;;;;;;;8.15;100.00;101262.00;5026679;28;20408;-63
2023/04/21 03:25:04;;;;;;;27.67;20.90;;;;;;;8.16;100.00;101255.53;5057528;28;20045;-62
2023/04/21 03:27:32;;;;;;;27.38;21.42;;;;;;;8.14;100.00;101254.94;5036055;28;20045;-64
2023/04/21 03:30:00;;;;;;;27.10;21.52;;;;;;;8.14;100.00;101257.66;5035395;28;20073;-63
2023/04/21 03:32:28;;;;;;;26.55;20.80;;;;;;;8.13;100.00;101254.13;5021205;28;20053;-61
2023/04/21 03:34:56;;;;;;;27.95;21.75;;;;;;;8.09;100.00;101259.19;5058430;28;20127;-64
2023/04/21 03:37:24;;;;;;;28.50;19.88;;;;;;;8.07;100.00;101245.03;5057111;28;20045;-61
2023/04/21 03:39:52;;;;;;;27.20;22.02;;;;;;;8.07;100.00;101244.22;5020736;28;20041;-64
2023/04/21 03:42:20;;;;;;;27.83;21.15;;;;;;;8.02;100.00;101247.66;5038069;28;20073;-63
2023/04/21 03:44:48;;;;;;;26.70;20.92;;;;;;;8.01;100.00;101246.00;5018132;28;20053;-63
2023/04/21 03:47:16;;;;;;;28.40;21.98;;;;;;;8.01;100.00;101239.72;5038702;28;20124;-62
2023/04/21 03:49:44;;;;;;;29.33;22.25;;;;;;;7.99;100.00;101231.84;5037685;28;20045;-64
2023/04/21 03:52:12;;;;;;;24.10;18.60;;;;;;;8.00;100.00;101232.66;5037452;28;20478;-63
2023/04/21 03:54:39;;;;;;;29.90;21.90;;;;;;;8.03;100.00;101226.75;5035376;28;20045;-63
2023/04/21 03:57:07;;;;;;;27.77;20.75;;;;;;;8.04;100.00;101245.53;5033575;28;20048;-61
2023/04/21 03:59:35;;;;;;;27.77;21.98;;;;;;;8.05;100.00;101241.72;5039797;28;20389;-61
2023/04/21 04:02:02;;;;;;;27.45;20.92;;;;;;;8.03;100.00;101237.63;5016448;28;20406;-62
2023/04/21 04:04:30;;;;;;;27.10;21.67;;;;;;;8.03;100.00;101233.03;5032067;28;20049;-62
2023/04/21 04:06:59;;;;;;;27.73;22.10;;;;;;;8.01;100.00;101235.16;5035451;28;20053;-62
2023/04/21 04:09:27;;;;;;;29.80;23.33;;;;;;;8.02;100.00;101241.41;5032736;28;20041;-66
2023/04/21 04:11:55;;;;;;;27.45;21.55;;;;;;;8.00;100.00;101236.19;5035636;28;20460;-64
2023/04/21 04:14:22;;;;;;;30.30;22.52;;;;;;;7.99;100.00;101240.00;5033971;28;20457;-64
2023/04/21 04:16:50;;;;;;;28.88;22.30;;;;;;;7.98;100.00;101232.91;5034740;28;20095;-62
2023/04/21 04:19:17;;;;;;;28.15;22.95;;;;;;;7.99;100.00;101234.56;5042733;28;20050;-62
2023/04/21 04:21:46;;;;;;;27.67;22.40;;;;;;;7.96;100.00;101243.19;5016053;28;20054;-64
2023/04/21 04:24:15;;;;;;;28.50;22.30;;;;;;;7.95;100.00;101244.25;5055842;28;20056;-63
2023/04/21 04:26:44;;;;;;;32.72;23.75;;;;;;;7.95;100.00;101246.13;5054085;28;20172;-62
2023/04/21 04:29:15;;;;;;;28.48;23.38;;;;;;;7.96;100.00;101254.06;5043500;28;20087;-65
2023/04/21 04:31:42;;;;;;;31.38;23.35;;;;;;;7.98;100.00;101251.06;5034976;28;20072;-62
2023/04/21 04:34:10;;;;;;;28.33;23.08;;;;;;;7.99;100.00;101256.28;5036112;28;20047;-62
2023/04/21 04:36:38;;;;;;;28.35;23.13;;;;;;;7.98;100.00;101257.31;5054660;28;20048;-63
2023/04/21 04:39:07;;;;;;;30.23;24.35;;;;;;;7.94;100.00;101256.19;5054094;28;20072;-63
2023/04/21 04:41:36;;;;;;;29.48;23.40;;;;;;;7.91;100.00;101248.50;5046250;28;20046;-62
2023/04/21 04:44:05;;;;;;;29.20;23.00;;;;;;;7.92;100.00;101241.19;5032859;28;20053;-63
2023/04/21 04:46:32;;;;;;;27.27;21.67;;;;;;;7.97;100.00;101255.69;5016520;28;20082;-62
2023/04/21 04:49:00;;;;;;;30.88;23.67;;;;;;;7.97;100.00;101249.44;5040518;28;20124;-64
2023/04/21 04:51:28;;;;;;;29.80;23.65;;;;;;;7.94;100.00;101253.47;5054208;28;20512;-65
2023/04/21 04:53:56;;;;;;;29.92;23.20;;;;;;;7.92;100.00;101252.06;5047265;28;20104;-62
2023/04/21 04:56:24;;;;;;;29.17;23.50;;;;;;;7.93;100.00;101249.09;5033028;28;20049;-62
2023/04/21 04:58:51;;;;;;;30.15;24.20;;;;;;;7.96;100.00;101247.78;5032630;28;20116;-62
2023/04/21 05:01:19;;;;;;;30.63;24.25;;;;;;;7.99;100.00;101242.72;5032703;28;20068;-68
2023/04/21 05:03:47;;;;;;;28.83;21.55;;;;;;;8.01;100.00;101250.59;5032776;28;20052;-62
2023/04/21 05:06:15;;;;;;;29.55;23.63;;;;;;;8.05;100.00;101260.72;5033621;28;20053;-65
2023/04/21 05:08:43;;;;;;;33.13;24.42;;;;;;;8.07;100.00;101260.50;5032285;28;20108;-63
2023/04/21 05:11:10;;;;;;;34.72;24.08;;;;;;;8.06;100.00;101259.69;5032827;28;20057;-64
2023/04/21 05:13:38;;;;;;;30.80;24.27;;;;;;;8.06;100.00;101259.69;5050418;28;20406;-64
2023/04/21 05:16:08;;;;;;;32.72;25.40;;;;;;;8.07;100.00;101261.31;5049738;28;20043;-62
2023/04/21 05:18:37;;;;;;;32.55;24.90;;;;;;;8.04;100.00;101261.81;5046838;28;20052;-62
2023/04/21 05:21:04;;;;;;;31.88;25.25;;;;;;;8.01;100.00;101269.59;5065417;28;20463;-61
2023/04/21 05:23:32;;;;;;;32.72;26.05;;;;;;;8.02;100.00;101268.53;5033668;28;20049;-63
2023/04/21 05:26:00;;;;;;;32.72;25.77;;;;;;;8.00;100.00;101271.47;5031472;28;20065;-64
2023/04/21 05:28:31;;;;;;;31.40;24.38;;;;;;;8.03;100.00;101271.03;5031980;28;20064;-63
2023/04/21 05:30:58;;;;;;;31.30;24.63;;;;;;;8.05;100.00;101278.91;5033205;28;20053;-65
2023/04/21 05:33:26;;;;;;;32.25;24.25;;;;;;;8.03;100.00;101281.88;5033483;28;20042;-62
2023/04/21 05:35:54;;;;;;;33.38;26.33;;;;;;;8.03;100.00;101276.44;5033375;28;20057;-62
2023/04/21 05:38:21;;;;;;;36.90;27.40;;;;;;;8.01;100.00;101275.88;5031556;28;20438;-65
2023/04/21 05:40:55;;;;;;;35.40;27.65;;;;;;;7.97;100.00;101288.25;5048415;28;20080;-63
2023/04/21 05:43:23;;;;;;;33.70;27.88;;;;;;;7.93;100.00;101278.94;5056708;28;20053;-63
2023/04/21 05:45:50;;;;;;;33.70;27.65;;;;;;;7.94;100.00;101283.31;5062940;28;20045;-61
2023/04/21 05:48:18;;;;;;;34.47;28.15;;;;;;;7.93;100.00;101283.53;5033311;28;20053;-62
2023/04/21 05:50:46;;;;;;;32.13;25.27;;;;;;;7.96;100.00;101285.75;5032993;28;20049;-60
2023/04/21 05:53:14;;;;;;;32.63;25.23;;;;;;;7.95;100.00;101298.50;5033373;28;20046;-60
2023/04/21 05:55:41;;;;;;;34.63;26.50;;;;;;;7.97;100.00;101296.38;5032537;28;20061;-63
2023/04/21 05:58:09;;;;;;;37.80;28.48;;;;;;;7.96;100.00;101300.19;5031357;28;20469;-63
2023/04/21 06:00:37;;;;;;;37.20;28.10;;;;;;;7.93;100.00;101295.22;4670941;28;10000069;-63
2023/04/21 06:03:05;;;;;;;37.92;29.73;;;;;;;7.95;100.00;101293.09;5032092;28;20045;-64
2023/04/21 06:05:33;;;;;;;34.28;27.65;;;;;;;7.98;100.00;101284.47;5027735;28;20097;-64
2023/04/21 06:08:01;;;;;;;35.67;28.67;;;;;;;8.01;100.00;101289.44;5014491;28;20071;-62
2023/04/21 06:10:30;;;;;;;36.97;28.67;;;;;;;8.04;100.00;101285.41;5031550;28;20138;-60
2023/04/21 06:12:57;;;;;;;32.60;27.10;;;;;;;8.04;100.00;101283.50;5029202;28;20056;-62
2023/04/21 06:15:25;;;;;;;32.90;27.05;;;;;;;8.06;100.00;101275.97;5029137;28;20476;-63
2023/04/21 06:17:56;;;;;;;37.20;28.88;;;;;;;8.07;100.00;101283.03;5040165;28;20510;-62
2023/04/21 06:20:24;;;;;;;34.13;26.92;;;;;;;8.10;100.00;101279.84;5048243;28;20063;-63
2023/04/21 06:22:52;;;;;;;38.22;27.77;;;;;;;8.11;100.00;101276.06;5049737;28;20049;-63
2023/04/21 06:25:19;;;;;;;34.20;26.67;;;;;;;8.10;100.00;101277.13;5031557;28;20085;-63
2023/04/21 06:27:47;;;;;;;35.05;27.13;;;;;;;8.13;100.00;101285.84;5029603;28;20596;-63
2023/04/21 06:30:16;;;;;;;33.45;25.33;;;;;;;8.13;100.00;101283.13;5038998;28;20048;-64
2023/04/21 06:32:46;;;;;;;35.55;27.65;;;;;;;8.17;100.00;101279.69;5033954;28;20057;-64
2023/04/21 06:35:14;;;;;;;35.55;27.23;;;;;;;8.25;100.00;101276.63;5035048;28;20060;-66
2023/04/21 06:37:42;;;;;;;33.00;27.35;;;;;;;8.32;100.00;101281.88;5035030;28;20045;-63
2023/04/21 06:40:11;;;;;;;30.65;25.77;;;;;;;8.36;100.00;101291.19;5050432;28;20127;-65
2023/04/21 06:42:38;;;;;;;32.10;26.27;;;;;;;8.40;100.00;101281.53;5039156;28;20072;-64
2023/04/21 06:45:08;;;;;;;33.03;25.75;;;;;;;8.45;100.00;101294.41;5041581;28;20049;-62
2023/04/21 06:47:36;;;;;;;34.15;27.77;;;;;;;8.45;100.00;101286.25;5053475;28;20049;-64
2023/04/21 06:50:04;;;;;;;33.42;26.92;;;;;;;8.46;100.00;101277.84;5050692;28;20101;-63
2023/04/21 06:52:32;;;;;;;28.98;22.40;;;;;;;8.49;100.00;101274.66;5037047;28;20049;-62
2023/04/21 06:55:00;;;;;;;37.88;28.98;;;;;;;8.52;100.00;101281.50;5020172;28;20064;-63
2023/04/21 06:57:28;;;;;;;31.90;26.77;;;;;;;8.58;100.00;101287.84;5035174;28;20406;-61
2023/04/21 06:59:55;;;;;;;35.58;27.27;;;;;;;8.55;100.00;101289.16;5039490;28;20470;-65
2023/04/21 07:02:23;;;;;;;36.90;29.02;;;;;;;8.57;100.00;101283.50;5055135;28;20053;-62
2023/04/21 07:04:51;;;;;;;38.13;30.48;;;;;;;8.58;100.00;101276.97;5042185;28;20044;-63
2023/04/21 07:07:19;;;;;;;38.80;31.52;;;;;;;8.60;100.00;101277.56;5072071;28;20061;-61
2023/04/21 07:09:47;;;;;;;40.10;31.40;;;;;;;8.59;100.00;101278.66;5056361;28;20543;-61
2023/04/21 07:12:14;;;;;;;38.85;31.52;;;;;;;8.60;100.00;101285.72;5041074;28;20073;-62
2023/04/21 07:14:43;;;;;;;37.78;32.03;;;;;;;8.63;100.00;101279.78;5034672;28;20090;-61
2023/04/21 07:17:11;;;;;;;38.50;31.13;;;;;;;8.65;100.00;101283.09;5013658;28;20069;-61
2023/04/21 07:19:39;;;;;;;34.47;28.40;;;;;;;8.69;100.00;101278.81;5016367;28;20500;-62
2023/04/21 07:22:08;;;;;;;35.42;29.15;;;;;;;8.73;100.00;101285.41;5016042;28;20057;-62
2023/04/21 07:24:36;;;;;;;30.73;25.67;;;;;;;8.82;100.00;101289.38;5034848;28;20045;-62
2023/04/21 07:27:03;;;;;;;32.60;26.23;;;;;;;8.90;100.00;101290.88;5042959;28;20052;-62
2023/04/21 07:29:31;;;;;;;33.00;26.05;;;;;;;8.95;100.00;101278.19;5017171;28;20054;-62
2023/04/21 07:31:59;;;;;;;32.70;26.42;;;;;;;9.00;100.00;101285.63;5034472;28;20151;-61
2023/04/21 07:34:27;;;;;;;31.05;24.35;;;;;;;9.04;100.00;101275.06;5035748;28;20450;-62
2023/04/21 07:36:55;;;;;;;32.17;24.73;;;;;;;9.05;100.00;101271.28;5040162;28;20048;-62
2023/04/21 07:39:23;;;;;;;30.85;25.23;;;;;;;9.03;100.00;101268.00;5039084;28;20073;-63
2023/04/21 07:41:51;;;;;;;30.65;22.65;;;;;;;9.06;100.00;101262.06;5035688;28;20049;-65
2023/04/21 07:44:18;;;;;;;34.78;24.65;;;;;;;9.13;100.00;101273.59;5035568;28;20128;-63
2023/04/21 07:46:46;;;;;;;29.55;21.30;;;;;;;9.17;100.00;101272.84;5035265;28;20053;-62
2023/04/21 07:49:14;;;;;;;26.88;19.83;;;;;;;9.25;100.00;101271.59;5047453;28;20056;-61
2023/04/21 07:51:42;;;;;;;29.48;23.08;;;;;;;9.31;100.00;101273.34;5035875;28;20045;-63
2023/04/21 07:54:10;;;;;;;28.45;22.77;;;;;;;9.34;100.00;101277.47;5051890;28;20456;-62
2023/04/21 07:56:38;;;;;;;27.35;23.05;;;;;;;9.36;100.00;101273.41;5055285;28;20041;-63
2023/04/21 07:59:06;;;;;;;29.00;25.10;;;;;;;9.36;100.00;101278.03;5035336;28;20052;-63
2023/04/21 08:01:34;;;;;;;31.48;26.55;;;;;;;9.34;100.00;101270.13;5035658;28;20042;-63
2023/04/21 08:04:02;;;;;;;35.97;28.05;;;;;;;9.37;100.00;101269.59;5038494;28;20057;-63
2023/04/21 08:06:32;;;;;;;31.23;25.88;;;;;;;9.42;100.00;101274.31;5038075;28;20139;-64
2023/04/21 08:09:00;;;;;;;31.60;27.33;;;;;;;9.45;100.00;101270.25;5038326;28;20061;-63
2023/04/21 08:11:27;;;;;;;29.10;23.75;;;;;;;9.52;100.00;101270.91;5038046;28;20053;-67
2023/04/21 08:13:56;;;;;;;25.98;21.15;;;;;;;9.54;100.00;101275.03;5049768;28;20041;-64
2023/04/21 08:16:24;;;;;;;28.55;22.55;;;;;;;9.58;100.00;101275.38;5038973;28;20045;-63
2023/04/21 08:18:52;;;;;;;26.75;20.67;;;;;;;9.63;100.00;101271.91;5042258;28;20053;-64
2023/04/21 08:21:19;;;;;;;24.05;18.48;;;;;;;9.65;100.00;101275.19;5034500;28;20053;-63
2023/04/21 08:23:47;;;;;;;27.30;22.52;;;;;;;9.75;100.00;101269.88;5044873;28;20140;-63
2023/04/21 08:26:15;;;;;;;24.13;16.55;;;;;;;9.84;100.00;101272.97;5032275;28;20053;-64
2023/04/21 08:28:42;;;;;;;24.48;19.80;;;;;;;9.88;100.00;101261.34;5034373;28;20045;-63
2023/04/21 08:31:10;;;;;;;24.13;19.20;;;;;;;9.91;100.00;101265.44;5033308;28;20080;-64
2023/04/21 08:33:38;;;;;;;23.50;18.15;;;;;;;9.91;100.00;101269.03;5033585;28;20073;-65
2023/04/21 08:36:20;;;;;;;23.30;19.27;;;;;;;9.91;100.00;101262.72;5036942;28;20049;-66
2023/04/21 08:38:56;;;;;;;23.77;18.58;;;;;;;9.93;100.00;101266.03;5044541;28;20045;-63
2023/04/21 08:41:25;;;;;;;26.73;20.17;;;;;;;9.95;100.00;101259.25;5033766;28;20195;-63
2023/04/21 08:43:53;;;;;;;27.27;22.25;;;;;;;10.01;100.00;101254.72;5017000;28;20068;-63
2023/04/21 08:46:21;;;;;;;25.98;19.70;;;;;;;10.06;100.00;101259.41;5034815;28;20049;-65
2023/04/21 08:48:49;;;;;;;45.05;19.95;;;;;;;10.11;100.00;101252.09;5041032;28;20113;-63
2023/04/21 08:51:22;;;;;;;34.65;20.13;;;;;;;10.14;100.00;101261.66;5034414;28;20136;-62
2023/04/21 08:53:50;;;;;;;29.20;20.73;;;;;;;10.17;100.00;101250.25;5037415;28;20053;-64
2023/04/21 08:56:18;;;;;;;24.85;20.13;;;;;;;10.19;100.00;101253.56;5051848;28;20460;-63
2023/04/21 08:58:46;;;;;;;25.75;19.40;;;;;;;10.22;100.00;101256.59;5037780;28;20057;-64
2023/04/21 09:01:14;;;;;;;25.35;17.38;;;;;;;10.23;100.00;101249.25;5034180;28;20068;-63
2023/04/21 09:03:42;;;;;;;23.58;18.25;;;;;;;10.26;100.00;101251.47;5033351;28;20049;-63
2023/04/21 09:06:13;;;;;;;20.98;16.83;;;;;;;10.29;100.00;101252.88;5048636;28;20045;-64
2023/04/21 09:08:54;;;;;;;23.25;17.77;;;;;;;10.33;100.00;101251.28;5038917;28;20493;-65
2023/04/21 09:11:22;;;;;;;21.58;17.75;;;;;;;10.40;100.00;101249.19;5033233;28;20041;-64
2023/04/21 09:13:50;;;;;;;21.20;16.60;;;;;;;10.46;100.00;101239.97;5033939;28;20045;-63
2023/04/21 09:16:20;;;;;;;25.15;17.35;;;;;;;10.49;100.00;101246.84;5046080;28;20040;-63
2023/04/21 09:18:50;;;;;;;20.83;13.60;;;;;;;10.52;100.00;101247.13;5044015;28;20052;-64
2023/04/21 09:21:19;;;;;;;24.45;16.08;;;;;;;10.52;100.00;101246.31;5032125;28;20068;-62
2023/04/21 09:23:49;;;;;;;22.73;15.63;;;;;;;10.53;100.00;101247.94;5016808;28;20056;-64
2023/04/21 09:26:19;;;;;;;23.02;18.23;;;;;;;10.53;100.00;101232.41;5044889;28;20132;-63
2023/04/21 09:28:48;;;;;;;25.27;18.90;;;;;;;10.55;100.00;101241.16;5038732;28;20049;-64
2023/04/21 09:31:20;;;;;;;22.17;17.35;;;;;;;10.59;100.00;101245.03;5038805;28;20041;-64
2023/04/21 09:33:50;;;;;;;23.25;17.92;;;;;;;10.59;100.00;101236.84;5017497;28;20489;-64
2023/04/21 09:36:29;;;;;;;21.85;16.83;;;;;;;10.64;100.00;101252.44;5040458;28;20162;-65
2023/04/21 09:39:00;;;;;;;22.92;16.77;;;;;;;10.69;100.00;101251.66;5033530;28;20087;-63
2023/04/21 09:41:32;;;;;;;22.95;17.00;;;;;;;10.73;100.00;101245.44;5032821;28;20041;-64
2023/04/21 09:44:08;;;;;;;24.65;17.85;;;;;;;10.77;100.00;101237.56;5012323;28;20081;-62
2023/04/21 09:46:36;;;;;;;25.08;17.83;;;;;;;10.81;100.00;101239.50;5025983;28;20396;-62
2023/04/21 09:49:05;;;;;;;23.73;18.08;;;;;;;10.86;100.00;101238.72;5046263;28;20055;-63
2023/04/21 09:51:34;;;;;;;24.10;18.67;;;;;;;10.88;100.00;101234.66;5040160;28;20041;-65
2023/04/21 09:54:19;;;;;;;23.33;18.35;;;;;;;10.98;100.00;101235.81;5047478;28;20045;-65
2023/04/21 09:56:52;;;;;;;21.42;18.27;;;;;;;10.99;100.00;101230.13;5018550;28;20409;-63
2023/04/21 09:59:26;;;;;;;21.75;16.05;;;;;;;11.02;100.00;101228.78;5032796;28;20493;-63
2023/04/21 10:01:55;;;;;;;23.83;18.98;;;;;;;11.06;100.00;101230.72;5037105;28;20052;-62
2023/04/21 10:04:24;;;;;;;20.98;17.00;;;;;;;11.13;100.00;101229.66;5038728;28;20056;-65
2023/04/21 10:06:53;;;;;;;22.98;16.30;;;;;;;11.18;100.00;101226.97;5047851;28;20060;-65
2023/04/21 10:09:23;;;;;;;21.65;17.48;;;;;;;11.27;100.00;101220.75;5038888;28;20463;-63
2023/04/21 10:11:51;;;;;;;22.50;16.48;;;;;;;11.34;100.00;101220.53;5021506;28;20555;-62
2023/04/21 10:14:19;;;;;;;21.75;14.77;;;;;;;11.36;100.00;101221.09;5050125;28;20041;-63
2023/04/21 10:17:05;;;;;;;24.52;18.33;;;;;;;11.38;100.00;101220.84;5049208;28;20465;-63
2023/04/21 10:19:38;;;;;;;22.17;14.98;;;;;;;11.41;100.00;101215.66;5041073;28;20037;-64
2023/04/21 10:22:10;;;;;;;22.65;17.67;;;;;;;11.47;100.00;101220.09;5058367;28;20107;-64
2023/04/21 10:24:39;;;;;;;21.00;14.68;;;;;;;11.53;100.00;101215.47;5060373;28;20045;-65
2023/04/21 10:27:11;;;;;;;20.23;15.32;;;;;;;11.63;100.00;101222.88;5035093;28;20045;-64
2023/04/21 10:29:39;;;;;;;18.08;13.75;;;;;;;11.69;100.00;101211.72;5039979;28;20060;-63
2023/04/21 10:32:44;;;;;;;20.17;16.92;;;;;;;11.74;100.00;101205.47;5047620;28;20072;-63
2023/04/21 10:35:21;;;;;;;21.73;18.05;;;;;;;11.79;100.00;101200.03;5048238;28;20075;-61
2023/04/21 10:37:50;;;;;;;23.42;18.27;;;;;;;11.82;100.00;101204.13;5050763;28;20461;-61
2023/04/21 10:40:34;;;;;;;25.33;18.58;;;;;;;11.90;100.00;101206.38;5041471;28;20081;-63
2023/04/21 10:43:48;;;;;;;21.65;18.02;;;;;;;12.02;100.00;101189.75;5036822;28;20401;-62
2023/04/21 10:46:38;;;;;;;21.58;16.27;;;;;;;12.00;100.00;101189.19;5056179;28;20136;-62
2023/04/21 10:49:11;;;;;;;22.65;17.42;;;;;;;12.05;100.00;101184.59;5056819;28;20105;-60
2023/04/21 10:52:03;;;;;;;21.50;17.85;;;;;;;12.08;100.00;101180.50;5049244;28;20106;-65
2023/04/21 10:54:48;;;;;;;22.13;17.95;;;;;;;12.04;98.92;101176.66;5024080;28;20049;-61
2023/04/21 10:57:19;;;;;;;22.20;18.88;;;;;;;12.02;99.78;101167.91;5034380;28;20397;-62
2023/04/21 10:59:48;;;;;;;26.42;19.95;;;;;;;12.06;99.78;101171.75;5039650;28;20050;-62
2023/04/21 11:02:20;;;;;;;59.97;35.78;;;;;;;12.08;100.00;101164.13;4347231;28;10000147;-63
2023/04/21 11:04:54;;;;;;;27.70;22.95;;;;;;;12.07;100.00;101157.00;5037280;28;20132;-65
2023/04/21 11:07:24;;;;;;;33.92;23.80;;;;;;;12.11;100.00;101167.13;5041972;28;20057;-64
2023/04/21 11:10:03;;;;;;;31.33;24.48;;;;;;;12.19;100.00;101159.47;5034579;28;20104;-65
2023/04/21 11:12:33;;;;;;;25.67;21.35;;;;;;;12.20;100.00;101156.50;5043909;28;20056;-62
2023/04/21 11:15:06;;;;;;;30.85;23.23;;;;;;;12.28;100.00;101147.75;5051781;28;20136;-65
2023/04/21 11:17:34;;;;;;;48.03;31.20;;;;;;;12.38;100.00;101143.38;5031591;28;20084;-64